sensor_id;sensor_type;location;lat;lon;timestamp;P1;durP1;ratioP1;P2;durP2;ratioP2
51296;SDS011;37380;45.186;9.792;2024-03-08T00:00:06;30.98;;;22.42;;
51296;SDS011;37380;45.186;9.792;2024-03-08T00:02:41;30.42;;;22.00;;
51296;SDS011;37380;45.186;9.792;2024-03-08T00:05:08;22.70;;;19.50;;
51296;SDS011;37380;45.186;9.792;2024-03-08T00:07:39;29.80;;;20.83;;
51296;SDS011;37380;45.186;9.792;2024-03-08T00:10:07;23.98;;;19.65;;
51296;SDS011;37380;45.186;9.792;2024-03-08T00:12:42;32.97;;;21.02;;
51296;SDS011;37380;45.186;9.792;2024-03-08T00:15:14;26.75;;;19.55;;
51296;SDS011;37380;45.186;9.792;2024-03-08T00:17:45;30.08;;;21.65;;
51296;SDS011;37380;45.186;9.792;2024-03-08T00:20:14;24.08;;;18.63;;
51296;SDS011;37380;45.186;9.792;2024-03-08T00:22:41;22.45;;;18.75;;
51296;SDS011;37380;45.186;9.792;2024-03-08T00:25:09;20.17;;;18.05;;
51296;SDS011;37380;45.186;9.792;2024-03-08T00:27:36;25.75;;;18.35;;
51296;SDS011;37380;45.186;9.792;2024-03-08T00:30:05;25.85;;;19.45;;
51296;SDS011;37380;45.186;9.792;2024-03-08T00:32:33;20.23;;;18.10;;
51296;SDS011;37380;45.186;9.792;2024-03-08T00:35:00;31.17;;;21.23;;
51296;SDS011;37380;45.186;9.792;2024-03-08T00:37:27;23.67;;;18.80;;
51296;SDS011;37380;45.186;9.792;2024-03-08T00:39:54;25.20;;;18.63;;
51296;SDS011;37380;45.186;9.792;2024-03-08T00:42:21;23.05;;;17.08;;
51296;SDS011;37380;45.186;9.792;2024-03-08T00:44:48;24.45;;;19.38;;
51296;SDS011;37380;45.186;9.792;2024-03-08T00:47:18;24.25;;;18.38;;
51296;SDS011;37380;45.186;9.792;2024-03-08T00:49:45;26.90;;;18.38;;
51296;SDS011;37380;45.186;9.792;2024-03-08T00:52:13;25.85;;;18.70;;
51296;SDS011;37380;45.186;9.792;2024-03-08T00:54:41;27.02;;;19.30;;
51296;SDS011;37380;45.186;9.792;2024-03-08T00:57:10;26.65;;;19.83;;
51296;SDS011;37380;45.186;9.792;2024-03-08T00:59:38;20.90;;;17.95;;
51296;SDS011;37380;45.186;9.792;2024-03-08T01:02:05;22.52;;;17.85;;
51296;SDS011;37380;45.186;9.792;2024-03-08T01:04:33;25.17;;;18.42;;
51296;SDS011;37380;45.186;9.792;2024-03-08T01:07:00;27.98;;;18.38;;
51296;SDS011;37380;45.186;9.792;2024-03-08T01:09:27;28.48;;;19.50;;
51296;SDS011;37380;45.186;9.792;2024-03-08T01:11:54;22.95;;;17.60;;
51296;SDS011;37380;45.186;9.792;2024-03-08T01:14:22;25.73;;;18.92;;
51296;SDS011;37380;45.186;9.792;2024-03-08T01:16:50;26.67;;;19.65;;
51296;SDS011;37380;45.186;9.792;2024-03-08T01:19:17;31.48;;;20.83;;
51296;SDS011;37380;45.186;9.792;2024-03-08T01:21:44;31.65;;;20.85;;
51296;SDS011;37380;45.186;9.792;2024-03-08T01:24:11;26.85;;;20.35;;
51296;SDS011;37380;45.186;9.792;2024-03-08T01:26:38;25.80;;;19.60;;
51296;SDS011;37380;45.186;9.792;2024-03-08T01:29:05;21.55;;;19.30;;
51296;SDS011;37380;45.186;9.792;2024-03-08T01:31:32;32.90;;;23.42;;
51296;SDS011;37380;45.186;9.792;2024-03-08T01:34:00;28.30;;;21.88;;
51296;SDS011;37380;45.186;9.792;2024-03-08T01:36:27;29.20;;;23.20;;
51296;SDS011;37380;45.186;9.792;2024-03-08T01:38:54;32.45;;;24.65;;
51296;SDS011;37380;45.186;9.792;2024-03-08T01:41:21;30.08;;;23.23;;
51296;SDS011;37380;45.186;9.792;2024-03-08T01:43:48;27.52;;;22.17;;
51296;SDS011;37380;45.186;9.792;2024-03-08T01:46:18;26.90;;;21.25;;
51296;SDS011;37380;45.186;9.792;2024-03-08T01:48:48;34.22;;;23.98;;
51296;SDS011;37380;45.186;9.792;2024-03-08T01:51:18;28.23;;;22.63;;
51296;SDS011;37380;45.186;9.792;2024-03-08T01:53:46;30.10;;;22.00;;
51296;SDS011;37380;45.186;9.792;2024-03-08T01:56:15;29.23;;;23.48;;
51296;SDS011;37380;45.186;9.792;2024-03-08T01:58:44;29.20;;;23.30;;
51296;SDS011;37380;45.186;9.792;2024-03-08T02:01:14;26.45;;;23.63;;
51296;SDS011;37380;45.186;9.792;2024-03-08T02:03:42;38.70;;;24.15;;
51296;SDS011;37380;45.186;9.792;2024-03-08T02:06:12;37.38;;;24.20;;
51296;SDS011;37380;45.186;9.792;2024-03-08T02:08:44;33.67;;;26.98;;
51296;SDS011;37380;45.186;9.792;2024-03-08T02:11:13;36.50;;;27.75;;
51296;SDS011;37380;45.186;9.792;2024-03-08T02:13:42;33.50;;;24.52;;
51296;SDS011;37380;45.186;9.792;2024-03-08T02:16:09;34.90;;;27.30;;
51296;SDS011;37380;45.186;9.792;2024-03-08T02:18:36;33.10;;;27.10;;
51296;SDS011;37380;45.186;9.792;2024-03-08T02:21:06;34.40;;;27.52;;
51296;SDS011;37380;45.186;9.792;2024-03-08T02:23:35;39.10;;;26.77;;
51296;SDS011;37380;45.186;9.792;2024-03-08T02:26:04;35.50;;;26.67;;
51296;SDS011;37380;45.186;9.792;2024-03-08T02:28:31;30.58;;;27.27;;
51296;SDS011;37380;45.186;9.792;2024-03-08T02:30:59;36.65;;;29.15;;
51296;SDS011;37380;45.186;9.792;2024-03-08T02:33:28;41.13;;;30.30;;
51296;SDS011;37380;45.186;9.792;2024-03-08T02:35:55;47.20;;;31.77;;
51296;SDS011;37380;45.186;9.792;2024-03-08T02:38:23;38.65;;;30.27;;
51296;SDS011;37380;45.186;9.792;2024-03-08T02:40:53;32.85;;;29.27;;
51296;SDS011;37380;45.186;9.792;2024-03-08T02:43:21;43.28;;;32.45;;
51296;SDS011;37380;45.186;9.792;2024-03-08T02:45:49;47.80;;;32.42;;
51296;SDS011;37380;45.186;9.792;2024-03-08T02:48:16;41.63;;;32.88;;
51296;SDS011;37380;45.186;9.792;2024-03-08T02:50:44;44.60;;;33.65;;
51296;SDS011;37380;45.186;9.792;2024-03-08T02:53:12;43.28;;;35.60;;
51296;SDS011;37380;45.186;9.792;2024-03-08T02:55:40;47.35;;;32.63;;
51296;SDS011;37380;45.186;9.792;2024-03-08T02:58:08;48.42;;;37.55;;
51296;SDS011;37380;45.186;9.792;2024-03-08T03:00:38;44.00;;;36.45;;
51296;SDS011;37380;45.186;9.792;2024-03-08T03:03:07;53.22;;;39.03;;
51296;SDS011;37380;45.186;9.792;2024-03-08T03:05:34;52.70;;;38.75;;
51296;SDS011;37380;45.186;9.792;2024-03-08T03:08:02;53.13;;;40.15;;
51296;SDS011;37380;45.186;9.792;2024-03-08T03:10:36;53.42;;;39.05;;
51296;SDS011;37380;45.186;9.792;2024-03-08T03:13:07;52.30;;;39.05;;
51296;SDS011;37380;45.186;9.792;2024-03-08T03:15:35;49.45;;;39.72;;
51296;SDS011;37380;45.186;9.792;2024-03-08T03:18:03;58.38;;;43.63;;
51296;SDS011;37380;45.186;9.792;2024-03-08T03:20:32;60.03;;;42.20;;
51296;SDS011;37380;45.186;9.792;2024-03-08T03:23:00;58.40;;;42.47;;
51296;SDS011;37380;45.186;9.792;2024-03-08T03:25:29;54.15;;;41.47;;
51296;SDS011;37380;45.186;9.792;2024-03-08T03:28:04;47.30;;;38.13;;
51296;SDS011;37380;45.186;9.792;2024-03-08T03:30:31;50.90;;;41.40;;
51296;SDS011;37380;45.186;9.792;2024-03-08T03:33:02;56.22;;;44.60;;
51296;SDS011;37380;45.186;9.792;2024-03-08T03:35:34;61.33;;;41.35;;
51296;SDS011;37380;45.186;9.792;2024-03-08T03:38:03;53.13;;;42.28;;
51296;SDS011;37380;45.186;9.792;2024-03-08T03:40:30;47.58;;;37.85;;
51296;SDS011;37380;45.186;9.792;2024-03-08T03:42:57;53.97;;;40.42;;
51296;SDS011;37380;45.186;9.792;2024-03-08T03:45:25;53.47;;;37.85;;
51296;SDS011;37380;45.186;9.792;2024-03-08T03:47:52;47.78;;;37.20;;
51296;SDS011;37380;45.186;9.792;2024-03-08T03:50:19;51.58;;;37.85;;
51296;SDS011;37380;45.186;9.792;2024-03-08T03:52:46;49.33;;;35.80;;
51296;SDS011;37380;45.186;9.792;2024-03-08T03:55:14;49.58;;;36.88;;
51296;SDS011;37380;45.186;9.792;2024-03-08T03:57:42;46.67;;;34.65;;
51296;SDS011;37380;45.186;9.792;2024-03-08T04:00:10;50.67;;;37.80;;
51296;SDS011;37380;45.186;9.792;2024-03-08T04:02:41;40.92;;;33.58;;
51296;SDS011;37380;45.186;9.792;2024-03-08T04:05:09;46.78;;;30.83;;
51296;SDS011;37380;45.186;9.792;2024-03-08T04:07:37;44.50;;;34.33;;
51296;SDS011;37380;45.186;9.792;2024-03-08T04:10:06;46.13;;;36.08;;
51296;SDS011;37380;45.186;9.792;2024-03-08T04:12:36;77.90;;;41.30;;
51296;SDS011;37380;45.186;9.792;2024-03-08T04:15:04;50.15;;;38.67;;
51296;SDS011;37380;45.186;9.792;2024-03-08T04:17:38;51.50;;;39.85;;
51296;SDS011;37380;45.186;9.792;2024-03-08T04:20:05;58.17;;;44.83;;
51296;SDS011;37380;45.186;9.792;2024-03-08T04:22:42;56.08;;;40.10;;
51296;SDS011;37380;45.186;9.792;2024-03-08T04:25:11;54.20;;;40.70;;
51296;SDS011;37380;45.186;9.792;2024-03-08T04:27:38;54.75;;;40.40;;
51296;SDS011;37380;45.186;9.792;2024-03-08T04:30:05;55.65;;;41.05;;
51296;SDS011;37380;45.186;9.792;2024-03-08T04:32:35;56.30;;;44.97;;
51296;SDS011;37380;45.186;9.792;2024-03-08T04:35:02;57.72;;;43.38;;
51296;SDS011;37380;45.186;9.792;2024-03-08T04:37:30;54.28;;;42.85;;
51296;SDS011;37380;45.186;9.792;2024-03-08T04:39:58;54.42;;;41.92;;
51296;SDS011;37380;45.186;9.792;2024-03-08T04:42:26;58.33;;;44.08;;
51296;SDS011;37380;45.186;9.792;2024-03-08T04:44:56;56.17;;;44.53;;
51296;SDS011;37380;45.186;9.792;2024-03-08T04:47:24;56.88;;;43.95;;
51296;SDS011;37380;45.186;9.792;2024-03-08T04:49:52;55.20;;;43.05;;
51296;SDS011;37380;45.186;9.792;2024-03-08T04:52:19;56.47;;;43.28;;
51296;SDS011;37380;45.186;9.792;2024-03-08T04:54:46;51.33;;;41.20;;
51296;SDS011;37380;45.186;9.792;2024-03-08T04:57:14;51.53;;;42.03;;
51296;SDS011;37380;45.186;9.792;2024-03-08T04:59:41;50.63;;;40.15;;
51296;SDS011;37380;45.186;9.792;2024-03-08T05:02:08;51.65;;;40.22;;
51296;SDS011;37380;45.186;9.792;2024-03-08T05:04:35;49.95;;;37.13;;
51296;SDS011;37380;45.186;9.792;2024-03-08T05:07:02;57.05;;;39.10;;
51296;SDS011;37380;45.186;9.792;2024-03-08T05:09:30;52.92;;;40.17;;
51296;SDS011;37380;45.186;9.792;2024-03-08T05:11:59;57.20;;;40.78;;
51296;SDS011;37380;45.186;9.792;2024-03-08T05:14:26;50.92;;;37.53;;
51296;SDS011;37380;45.186;9.792;2024-03-08T05:16:53;49.58;;;39.45;;
51296;SDS011;37380;45.186;9.792;2024-03-08T05:19:20;45.38;;;38.53;;
51296;SDS011;37380;45.186;9.792;2024-03-08T05:21:48;51.95;;;39.15;;
51296;SDS011;37380;45.186;9.792;2024-03-08T05:24:16;60.60;;;38.13;;
51296;SDS011;37380;45.186;9.792;2024-03-08T05:26:45;52.85;;;39.63;;
51296;SDS011;37380;45.186;9.792;2024-03-08T05:29:13;55.83;;;38.40;;
51296;SDS011;37380;45.186;9.792;2024-03-08T05:31:50;45.58;;;35.53;;
51296;SDS011;37380;45.186;9.792;2024-03-08T05:34:21;41.38;;;34.67;;
51296;SDS011;37380;45.186;9.792;2024-03-08T05:36:49;46.92;;;32.63;;
51296;SDS011;37380;45.186;9.792;2024-03-08T05:39:18;45.90;;;32.97;;
51296;SDS011;37380;45.186;9.792;2024-03-08T05:41:46;41.35;;;32.47;;
51296;SDS011;37380;45.186;9.792;2024-03-08T05:44:14;55.97;;;32.92;;
51296;SDS011;37380;45.186;9.792;2024-03-08T05:46:41;49.33;;;31.13;;
51296;SDS011;37380;45.186;9.792;2024-03-08T05:49:08;47.65;;;34.33;;
51296;SDS011;37380;45.186;9.792;2024-03-08T05:51:38;39.08;;;29.75;;
51296;SDS011;37380;45.186;9.792;2024-03-08T05:54:08;39.22;;;27.92;;
51296;SDS011;37380;45.186;9.792;2024-03-08T05:56:38;35.60;;;25.83;;
51296;SDS011;37380;45.186;9.792;2024-03-08T05:59:09;37.70;;;27.25;;
51296;SDS011;37380;45.186;9.792;2024-03-08T06:01:37;36.15;;;28.00;;
51296;SDS011;37380;45.186;9.792;2024-03-08T06:04:04;35.03;;;26.73;;
51296;SDS011;37380;45.186;9.792;2024-03-08T06:06:32;34.22;;;26.10;;
51296;SDS011;37380;45.186;9.792;2024-03-08T06:08:59;34.90;;;25.63;;
51296;SDS011;37380;45.186;9.792;2024-03-08T06:11:26;32.85;;;26.05;;
51296;SDS011;37380;45.186;9.792;2024-03-08T06:13:55;30.33;;;23.35;;
51296;SDS011;37380;45.186;9.792;2024-03-08T06:16:27;32.92;;;24.08;;
51296;SDS011;37380;45.186;9.792;2024-03-08T06:18:56;33.72;;;24.00;;
51296;SDS011;37380;45.186;9.792;2024-03-08T06:21:24;44.05;;;27.13;;
51296;SDS011;37380;45.186;9.792;2024-03-08T06:23:55;41.50;;;30.75;;
51296;SDS011;37380;45.186;9.792;2024-03-08T06:26:24;39.55;;;27.10;;
51296;SDS011;37380;45.186;9.792;2024-03-08T06:28:57;37.42;;;29.17;;
51296;SDS011;37380;45.186;9.792;2024-03-08T06:31:24;38.00;;;28.27;;
51296;SDS011;37380;45.186;9.792;2024-03-08T06:33:51;33.13;;;26.90;;
51296;SDS011;37380;45.186;9.792;2024-03-08T06:36:22;35.70;;;26.60;;
51296;SDS011;37380;45.186;9.792;2024-03-08T06:38:49;33.28;;;26.38;;
51296;SDS011;37380;45.186;9.792;2024-03-08T06:41:17;42.10;;;29.50;;
51296;SDS011;37380;45.186;9.792;2024-03-08T06:43:44;40.38;;;30.58;;
51296;SDS011;37380;45.186;9.792;2024-03-08T06:46:12;44.50;;;29.02;;
51296;SDS011;37380;45.186;9.792;2024-03-08T06:48:41;43.30;;;32.17;;
51296;SDS011;37380;45.186;9.792;2024-03-08T06:51:08;40.70;;;30.73;;
51296;SDS011;37380;45.186;9.792;2024-03-08T06:53:37;34.25;;;25.83;;
51296;SDS011;37380;45.186;9.792;2024-03-08T06:56:05;37.10;;;29.70;;
51296;SDS011;37380;45.186;9.792;2024-03-08T06:58:34;43.50;;;31.80;;
51296;SDS011;37380;45.186;9.792;2024-03-08T07:01:02;52.42;;;31.90;;
51296;SDS011;37380;45.186;9.792;2024-03-08T07:03:31;45.25;;;31.77;;
51296;SDS011;37380;45.186;9.792;2024-03-08T07:05:59;38.47;;;30.20;;
51296;SDS011;37380;45.186;9.792;2024-03-08T07:08:30;35.53;;;28.45;;
51296;SDS011;37380;45.186;9.792;2024-03-08T07:10:57;41.15;;;28.85;;
51296;SDS011;37380;45.186;9.792;2024-03-08T07:13:26;42.83;;;28.42;;
51296;SDS011;37380;45.186;9.792;2024-03-08T07:15:55;38.65;;;30.55;;
51296;SDS011;37380;45.186;9.792;2024-03-08T07:18:22;37.35;;;28.50;;
51296;SDS011;37380;45.186;9.792;2024-03-08T07:20:50;37.45;;;27.85;;
51296;SDS011;37380;45.186;9.792;2024-03-08T07:23:17;33.40;;;26.55;;
51296;SDS011;37380;45.186;9.792;2024-03-08T07:26:03;42.78;;;24.95;;
51296;SDS011;37380;45.186;9.792;2024-03-08T07:28:30;38.78;;;28.30;;
51296;SDS011;37380;45.186;9.792;2024-03-08T07:30:58;35.20;;;25.90;;
51296;SDS011;37380;45.186;9.792;2024-03-08T07:33:48;35.65;;;27.48;;
51296;SDS011;37380;45.186;9.792;2024-03-08T07:36:17;34.53;;;27.65;;
51296;SDS011;37380;45.186;9.792;2024-03-08T07:38:44;32.17;;;26.75;;
51296;SDS011;37380;45.186;9.792;2024-03-08T07:41:14;33.95;;;25.83;;
51296;SDS011;37380;45.186;9.792;2024-03-08T07:43:42;38.47;;;26.05;;
51296;SDS011;37380;45.186;9.792;2024-03-08T07:46:09;26.02;;;23.25;;
51296;SDS011;37380;45.186;9.792;2024-03-08T07:48:37;38.03;;;26.60;;
51296;SDS011;37380;45.186;9.792;2024-03-08T07:51:04;28.63;;;23.88;;
51296;SDS011;37380;45.186;9.792;2024-03-08T07:53:32;30.48;;;24.80;;
51296;SDS011;37380;45.186;9.792;2024-03-08T07:55:59;31.15;;;26.30;;
51296;SDS011;37380;45.186;9.792;2024-03-08T07:58:26;35.88;;;23.88;;
51296;SDS011;37380;45.186;9.792;2024-03-08T08:00:55;35.15;;;24.88;;
51296;SDS011;37380;45.186;9.792;2024-03-08T08:03:22;34.47;;;25.42;;
51296;SDS011;37380;45.186;9.792;2024-03-08T08:05:49;37.42;;;26.73;;
51296;SDS011;37380;45.186;9.792;2024-03-08T08:08:16;38.17;;;26.65;;
51296;SDS011;37380;45.186;9.792;2024-03-08T08:10:43;27.40;;;22.83;;
51296;SDS011;37380;45.186;9.792;2024-03-08T08:13:10;45.03;;;26.30;;
51296;SDS011;37380;45.186;9.792;2024-03-08T08:15:38;28.27;;;23.95;;
51296;SDS011;37380;45.186;9.792;2024-03-08T08:18:05;36.53;;;24.70;;
51296;SDS011;37380;45.186;9.792;2024-03-08T08:20:33;41.00;;;23.98;;
51296;SDS011;37380;45.186;9.792;2024-03-08T08:23:00;35.50;;;23.80;;
51296;SDS011;37380;45.186;9.792;2024-03-08T08:25:28;35.22;;;24.85;;
51296;SDS011;37380;45.186;9.792;2024-03-08T08:27:55;28.88;;;23.65;;
51296;SDS011;37380;45.186;9.792;2024-03-08T08:30:22;31.60;;;21.30;;
51296;SDS011;37380;45.186;9.792;2024-03-08T08:32:49;32.15;;;21.83;;
51296;SDS011;37380;45.186;9.792;2024-03-08T08:35:16;31.45;;;22.27;;
51296;SDS011;37380;45.186;9.792;2024-03-08T08:37:46;22.55;;;19.20;;
51296;SDS011;37380;45.186;9.792;2024-03-08T08:40:13;26.30;;;20.60;;
51296;SDS011;37380;45.186;9.792;2024-03-08T08:42:44;19.67;;;17.58;;
51296;SDS011;37380;45.186;9.792;2024-03-08T08:45:16;29.30;;;17.73;;
51296;SDS011;37380;45.186;9.792;2024-03-08T08:47:51;21.08;;;16.70;;
51296;SDS011;37380;45.186;9.792;2024-03-08T08:50:19;20.17;;;16.95;;
51296;SDS011;37380;45.186;9.792;2024-03-08T08:52:50;32.35;;;19.98;;
51296;SDS011;37380;45.186;9.792;2024-03-08T08:55:17;15.82;;;13.90;;
51296;SDS011;37380;45.186;9.792;2024-03-08T08:57:47;18.00;;;14.48;;
51296;SDS011;37380;45.186;9.792;2024-03-08T09:00:16;25.80;;;14.98;;
51296;SDS011;37380;45.186;9.792;2024-03-08T09:02:43;19.35;;;15.73;;
51296;SDS011;37380;45.186;9.792;2024-03-08T09:05:11;23.13;;;15.93;;
51296;SDS011;37380;45.186;9.792;2024-03-08T09:07:38;15.57;;;14.00;;
51296;SDS011;37380;45.186;9.792;2024-03-08T09:10:06;22.92;;;15.52;;
51296;SDS011;37380;45.186;9.792;2024-03-08T09:12:39;21.42;;;16.80;;
51296;SDS011;37380;45.186;9.792;2024-03-08T09:15:06;24.25;;;15.18;;
51296;SDS011;37380;45.186;9.792;2024-03-08T09:17:38;19.60;;;15.90;;
51296;SDS011;37380;45.186;9.792;2024-03-08T09:20:07;18.40;;;13.02;;
51296;SDS011;37380;45.186;9.792;2024-03-08T09:22:35;17.83;;;14.77;;
51296;SDS011;37380;45.186;9.792;2024-03-08T09:25:02;21.30;;;13.15;;
51296;SDS011;37380;45.186;9.792;2024-03-08T09:27:32;15.57;;;12.70;;
51296;SDS011;37380;45.186;9.792;2024-03-08T09:30:05;13.60;;;12.05;;
51296;SDS011;37380;45.186;9.792;2024-03-08T09:32:34;15.07;;;10.77;;
51296;SDS011;37380;45.186;9.792;2024-03-08T09:35:01;21.60;;;10.40;;
51296;SDS011;37380;45.186;9.792;2024-03-08T09:37:29;11.95;;;8.85;;
51296;SDS011;37380;45.186;9.792;2024-03-08T09:39:56;14.95;;;10.82;;
51296;SDS011;37380;45.186;9.792;2024-03-08T09:42:24;14.63;;;12.38;;
51296;SDS011;37380;45.186;9.792;2024-03-08T09:44:51;17.58;;;11.43;;
51296;SDS011;37380;45.186;9.792;2024-03-08T09:47:19;19.77;;;12.90;;
51296;SDS011;37380;45.186;9.792;2024-03-08T09:49:52;15.93;;;11.27;;
51296;SDS011;37380;45.186;9.792;2024-03-08T09:52:20;9.75;;;8.68;;
51296;SDS011;37380;45.186;9.792;2024-03-08T09:54:47;13.07;;;11.60;;
51296;SDS011;37380;45.186;9.792;2024-03-08T09:57:16;17.42;;;11.65;;
51296;SDS011;37380;45.186;9.792;2024-03-08T09:59:46;10.00;;;8.93;;
51296;SDS011;37380;45.186;9.792;2024-03-08T10:02:15;17.50;;;11.77;;
51296;SDS011;37380;45.186;9.792;2024-03-08T10:04:43;12.98;;;11.43;;
51296;SDS011;37380;45.186;9.792;2024-03-08T10:07:13;14.88;;;13.20;;
51296;SDS011;37380;45.186;9.792;2024-03-08T10:09:40;21.55;;;13.82;;
51296;SDS011;37380;45.186;9.792;2024-03-08T10:12:13;16.33;;;13.77;;
51296;SDS011;37380;45.186;9.792;2024-03-08T10:14:42;19.23;;;13.95;;
51296;SDS011;37380;45.186;9.792;2024-03-08T10:17:10;16.52;;;12.75;;
51296;SDS011;37380;45.186;9.792;2024-03-08T10:19:37;17.92;;;13.70;;
51296;SDS011;37380;45.186;9.792;2024-03-08T10:22:05;18.88;;;13.73;;
51296;SDS011;37380;45.186;9.792;2024-03-08T10:24:33;14.25;;;12.73;;
51296;SDS011;37380;45.186;9.792;2024-03-08T10:27:01;16.52;;;14.82;;
51296;SDS011;37380;45.186;9.792;2024-03-08T10:29:31;14.68;;;12.60;;
51296;SDS011;37380;45.186;9.792;2024-03-08T10:31:59;21.95;;;13.25;;
51296;SDS011;37380;45.186;9.792;2024-03-08T10:34:26;15.90;;;12.43;;
51296;SDS011;37380;45.186;9.792;2024-03-08T10:36:53;18.33;;;12.30;;
51296;SDS011;37380;45.186;9.792;2024-03-08T10:39:37;14.23;;;11.82;;
51296;SDS011;37380;45.186;9.792;2024-03-08T10:44:40;14.25;;;10.05;;
51296;SDS011;37380;45.186;9.792;2024-03-08T10:47:18;15.90;;;10.60;;
51296;SDS011;37380;45.186;9.792;2024-03-08T10:52:16;12.23;;;10.85;;
51296;SDS011;37380;45.186;9.792;2024-03-08T10:54:43;12.50;;;8.48;;
51296;SDS011;37380;45.186;9.792;2024-03-08T10:57:12;10.32;;;9.20;;
51296;SDS011;37380;45.186;9.792;2024-03-08T10:59:42;13.77;;;10.38;;
51296;SDS011;37380;45.186;9.792;2024-03-08T11:02:11;15.18;;;11.10;;
51296;SDS011;37380;45.186;9.792;2024-03-08T11:04:39;11.98;;;10.77;;
51296;SDS011;37380;45.186;9.792;2024-03-08T11:07:17;13.77;;;12.13;;
51296;SDS011;37380;45.186;9.792;2024-03-08T11:09:47;10.73;;;9.55;;
51296;SDS011;37380;45.186;9.792;2024-03-08T11:14:49;12.05;;;9.88;;
51296;SDS011;37380;45.186;9.792;2024-03-08T11:17:20;12.70;;;11.48;;
51296;SDS011;37380;45.186;9.792;2024-03-08T11:19:58;16.05;;;12.60;;
51296;SDS011;37380;45.186;9.792;2024-03-08T11:22:29;14.43;;;12.80;;
51296;SDS011;37380;45.186;9.792;2024-03-08T11:25:03;15.30;;;12.65;;
51296;SDS011;37380;45.186;9.792;2024-03-08T11:27:36;16.08;;;11.68;;
51296;SDS011;37380;45.186;9.792;2024-03-08T11:30:07;11.32;;;10.23;;
51296;SDS011;37380;45.186;9.792;2024-03-08T11:32:45;11.93;;;10.82;;
51296;SDS011;37380;45.186;9.792;2024-03-08T11:35:18;21.23;;;10.48;;
51296;SDS011;37380;45.186;9.792;2024-03-08T11:37:47;15.45;;;12.27;;
51296;SDS011;37380;45.186;9.792;2024-03-08T11:40:15;14.70;;;11.75;;
51296;SDS011;37380;45.186;9.792;2024-03-08T11:42:48;14.57;;;13.07;;
51296;SDS011;37380;45.186;9.792;2024-03-08T11:45:15;21.00;;;11.38;;
51296;SDS011;37380;45.186;9.792;2024-03-08T11:47:44;19.77;;;13.15;;
51296;SDS011;37380;45.186;9.792;2024-03-08T11:50:16;15.05;;;12.20;;
51296;SDS011;37380;45.186;9.792;2024-03-08T11:52:46;9.95;;;9.05;;
51296;SDS011;37380;45.186;9.792;2024-03-08T11:55:13;10.07;;;8.88;;
51296;SDS011;37380;45.186;9.792;2024-03-08T11:57:41;34.08;;;11.10;;
51296;SDS011;37380;45.186;9.792;2024-03-08T12:00:16;14.20;;;10.57;;
51296;SDS011;37380;45.186;9.792;2024-03-08T12:03:00;22.33;;;14.18;;
51296;SDS011;37380;45.186;9.792;2024-03-08T12:05:29;23.48;;;13.02;;
51296;SDS011;37380;45.186;9.792;2024-03-08T12:07:57;11.85;;;10.20;;
51296;SDS011;37380;45.186;9.792;2024-03-08T12:10:28;18.73;;;13.07;;
51296;SDS011;37380;45.186;9.792;2024-03-08T12:12:57;13.52;;;12.13;;
51296;SDS011;37380;45.186;9.792;2024-03-08T12:15:29;13.60;;;12.30;;
51296;SDS011;37380;45.186;9.792;2024-03-08T12:18:00;13.52;;;11.73;;
51296;SDS011;37380;45.186;9.792;2024-03-08T12:20:28;12.95;;;11.65;;
51296;SDS011;37380;45.186;9.792;2024-03-08T12:22:59;23.05;;;14.15;;
51296;SDS011;37380;45.186;9.792;2024-03-08T12:25:27;13.95;;;10.85;;
51296;SDS011;37380;45.186;9.792;2024-03-08T12:27:56;21.25;;;13.10;;
51296;SDS011;37380;45.186;9.792;2024-03-08T12:30:25;11.65;;;10.45;;
51296;SDS011;37380;45.186;9.792;2024-03-08T12:32:56;14.68;;;11.80;;
51296;SDS011;37380;45.186;9.792;2024-03-08T12:35:28;13.88;;;11.38;;
51296;SDS011;37380;45.186;9.792;2024-03-08T12:37:57;11.43;;;10.27;;
51296;SDS011;37380;45.186;9.792;2024-03-08T12:40:26;17.98;;;11.85;;
51296;SDS011;37380;45.186;9.792;2024-03-08T12:42:55;12.20;;;9.70;;
51296;SDS011;37380;45.186;9.792;2024-03-08T12:45:23;11.32;;;9.80;;
51296;SDS011;37380;45.186;9.792;2024-03-08T12:47:51;12.15;;;11.02;;
51296;SDS011;37380;45.186;9.792;2024-03-08T12:50:20;15.18;;;9.75;;
51296;SDS011;37380;45.186;9.792;2024-03-08T12:52:48;19.35;;;9.88;;
51296;SDS011;37380;45.186;9.792;2024-03-08T12:55:19;17.13;;;10.70;;
51296;SDS011;37380;45.186;9.792;2024-03-08T12:57:46;13.60;;;9.70;;
51296;SDS011;37380;45.186;9.792;2024-03-08T13:00:15;17.90;;;10.02;;
51296;SDS011;37380;45.186;9.792;2024-03-08T13:02:46;15.20;;;11.23;;
51296;SDS011;37380;45.186;9.792;2024-03-08T13:05:14;10.88;;;9.77;;
51296;SDS011;37380;45.186;9.792;2024-03-08T13:07:41;12.55;;;11.20;;
51296;SDS011;37380;45.186;9.792;2024-03-08T13:10:13;10.77;;;9.50;;
51296;SDS011;37380;45.186;9.792;2024-03-08T13:12:44;13.77;;;9.93;;
51296;SDS011;37380;45.186;9.792;2024-03-08T13:15:11;11.55;;;9.82;;
51296;SDS011;37380;45.186;9.792;2024-03-08T13:17:47;16.35;;;11.38;;
51296;SDS011;37380;45.186;9.792;2024-03-08T13:20:15;13.57;;;10.77;;
51296;SDS011;37380;45.186;9.792;2024-03-08T13:22:56;12.52;;;10.60;;
51296;SDS011;37380;45.186;9.792;2024-03-08T13:25:26;11.73;;;10.70;;
51296;SDS011;37380;45.186;9.792;2024-03-08T13:27:53;10.70;;;9.40;;
51296;SDS011;37380;45.186;9.792;2024-03-08T13:30:22;15.35;;;9.52;;
51296;SDS011;37380;45.186;9.792;2024-03-08T13:32:53;15.95;;;9.73;;
51296;SDS011;37380;45.186;9.792;2024-03-08T13:35:22;13.57;;;9.13;;
51296;SDS011;37380;45.186;9.792;2024-03-08T13:37:53;10.57;;;7.97;;
51296;SDS011;37380;45.186;9.792;2024-03-08T13:40:21;11.50;;;10.50;;
51296;SDS011;37380;45.186;9.792;2024-03-08T13:42:48;12.90;;;11.60;;
51296;SDS011;37380;45.186;9.792;2024-03-08T13:45:15;11.10;;;9.18;;
51296;SDS011;37380;45.186;9.792;2024-03-08T13:47:49;12.40;;;11.18;;
51296;SDS011;37380;45.186;9.792;2024-03-08T13:50:21;19.55;;;11.43;;
51296;SDS011;37380;45.186;9.792;2024-03-08T13:52:49;12.80;;;9.27;;
51296;SDS011;37380;45.186;9.792;2024-03-08T13:55:22;10.18;;;9.15;;
51296;SDS011;37380;45.186;9.792;2024-03-08T13:57:53;10.88;;;9.77;;
51296;SDS011;37380;45.186;9.792;2024-03-08T14:00:20;11.57;;;10.40;;
51296;SDS011;37380;45.186;9.792;2024-03-08T14:02:54;16.10;;;11.13;;
51296;SDS011;37380;45.186;9.792;2024-03-08T14:05:21;16.88;;;10.88;;
51296;SDS011;37380;45.186;9.792;2024-03-08T14:07:48;14.35;;;11.23;;
51296;SDS011;37380;45.186;9.792;2024-03-08T14:10:17;12.95;;;11.38;;
51296;SDS011;37380;45.186;9.792;2024-03-08T14:12:49;15.13;;;12.48;;
51296;SDS011;37380;45.186;9.792;2024-03-08T14:15:17;11.70;;;9.68;;
51296;SDS011;37380;45.186;9.792;2024-03-08T14:17:45;11.13;;;9.93;;
51296;SDS011;37380;45.186;9.792;2024-03-08T14:20:14;16.40;;;10.93;;
51296;SDS011;37380;45.186;9.792;2024-03-08T14:22:41;22.13;;;12.80;;
51296;SDS011;37380;45.186;9.792;2024-03-08T14:25:08;15.98;;;12.05;;
51296;SDS011;37380;45.186;9.792;2024-03-08T14:27:45;17.23;;;10.82;;
51296;SDS011;37380;45.186;9.792;2024-03-08T14:30:14;12.98;;;11.35;;
51296;SDS011;37380;45.186;9.792;2024-03-08T14:32:58;16.60;;;11.18;;
51296;SDS011;37380;45.186;9.792;2024-03-08T14:35:29;14.30;;;11.40;;
51296;SDS011;37380;45.186;9.792;2024-03-08T14:37:56;23.25;;;11.88;;
51296;SDS011;37380;45.186;9.792;2024-03-08T14:40:24;13.98;;;12.43;;